Time;durP1;ratioP1;P1;durP2;ratioP2;P2;SDS_P1;SDS_P2;PMS_P1;PMS_P2;Temp;Humidity;BMP_temperature;BMP_pressure;BME280_temperature;BME280_humidity;BME280_pressure;Samples;Min_cycle;Max_cycle;Signal;HPM_P1;HPM_P2
2021/05/05 00:01:58;;;;;;;7.05;1.60;;;11.80;57.10;;;;;;5041906;28;20067;-63
2021/05/05 00:04:24;;;;;;;13.18;2.05;;;11.80;57.20;;;;;;5040214;28;20052;-63
2021/05/05 00:06:50;;;;;;;8.40;1.30;;;11.80;57.30;;;;;;5046576;28;20041;-62
2021/05/05 00:09:18;;;;;;;7.63;1.45;;;11.80;57.40;;;;;;5038956;28;20036;-62
2021/05/05 00:11:47;;;;;;;6.80;2.15;;;11.80;57.40;;;;;;5027704;28;20039;-63
2021/05/05 00:14:14;;;;;;;12.27;2.03;;;11.80;57.40;;;;;;5028345;28;20136;-62
2021/05/05 00:16:42;;;;;;;9.98;1.77;;;11.80;57.50;;;;;;5046617;28;20040;-62
2021/05/05 00:19:08;;;;;;;11.13;2.20;;;11.80;57.50;;;;;;5053550;28;20040;-62
2021/05/05 00:21:40;;;;;;;6.45;1.50;;;11.80;57.50;;;;;;5034425;28;20044;-62
2021/05/05 00:24:07;;;;;;;12.98;1.90;;;11.80;57.50;;;;;;5052260;28;20166;-63
2021/05/05 00:26:37;;;;;;;9.18;1.90;;;11.80;57.50;;;;;;5040652;28;20501;-63
2021/05/05 00:29:04;;;;;;;9.23;1.67;;;11.80;57.50;;;;;;5052225;28;20044;-62
2021/05/05 00:31:34;;;;;;;10.23;1.40;;;11.80;57.50;;;;;;5066292;28;20055;-62
2021/05/05 00:33:59;;;;;;;6.32;1.27;;;11.80;57.50;;;;;;5064526;28;20040;-62
2021/05/05 00:36:27;;;;;;;9.15;1.50;;;11.80;57.50;;;;;;5062491;28;20040;-61
2021/05/05 00:38:55;;;;;;;8.73;1.63;;;11.80;57.50;;;;;;5058600;28;20139;-63
2021/05/05 00:41:24;;;;;;;5.80;1.58;;;11.80;57.40;;;;;;5059636;28;20039;-63
2021/05/05 00:43:52;;;;;;;10.90;1.23;;;11.80;57.40;;;;;;5068744;28;20024;-63
2021/05/05 00:46:17;;;;;;;10.82;1.50;;;11.80;57.40;;;;;;5067598;28;20035;-63
2021/05/05 00:48:45;;;;;;;6.35;1.42;;;11.80;57.30;;;;;;5060580;28;20036;-62
2021/05/05 00:51:11;;;;;;;8.70;1.75;;;11.80;57.30;;;;;;5062085;28;20169;-62
2021/05/05 00:53:39;;;;;;;8.48;1.48;;;11.80;57.40;;;;;;5062686;28;20059;-62
2021/05/05 00:56:05;;;;;;;4.95;1.50;;;11.80;57.40;;;;;;5061793;28;20036;-62
2021/05/05 00:58:35;;;;;;;9.30;1.80;;;11.80;57.40;;;;;;5061868;28;20040;-62
2021/05/05 01:01:06;;;;;;;4.75;1.50;;;11.80;57.40;;;;;;5063944;28;20031;-63
2021/05/05 01:03:37;;;;;;;11.60;1.95;;;11.80;57.40;;;;;;5045124;28;20406;-62
2021/05/05 01:06:03;;;;;;;12.65;1.70;;;11.80;57.40;;;;;;5041645;28;20544;-63
2021/05/05 01:08:33;;;;;;;8.40;1.35;;;11.70;57.30;;;;;;5050374;28;20036;-62
2021/05/05 01:11:00;;;;;;;10.35;1.95;;;11.70;57.40;;;;;;5034145;28;20122;-63
2021/05/05 01:13:28;;;;;;;12.90;1.92;;;11.60;57.30;;;;;;5053393;28;20060;-63
2021/05/05 01:15:56;;;;;;;10.25;1.50;;;11.60;57.40;;;;;;5025416;28;20554;-62
2021/05/05 01:18:24;;;;;;;9.43;1.92;;;11.60;57.50;;;;;;5050650;28;20486;-63
2021/05/05 01:20:58;;;;;;;7.68;1.60;;;11.50;57.60;;;;;;5043277;28;20041;-63
2021/05/05 01:23:25;;;;;;;8.63;1.90;;;11.50;57.70;;;;;;5043277;28;20473;-63
2021/05/05 01:25:50;;;;;;;9.82;1.50;;;11.50;57.60;;;;;;5049904;28;20123;-63
2021/05/05 01:28:18;;;;;;;10.75;1.70;;;11.50;57.60;;;;;;5052101;28;20050;-62
2021/05/05 01:30:45;;;;;;;10.70;1.40;;;11.50;57.50;;;;;;5028167;28;20031;-62
2021/05/05 01:33:14;;;;;;;8.02;1.45;;;11.50;57.50;;;;;;5040002;28;20032;-62
2021/05/05 01:35:40;;;;;;;8.95;1.73;;;11.50;57.50;;;;;;5037178;28;20040;-63
2021/05/05 01:38:05;;;;;;;9.98;1.60;;;11.40;57.40;;;;;;5041954;28;20036;-63
2021/05/05 01:40:33;;;;;;;6.03;1.58;;;11.40;57.50;;;;;;5046231;28;20078;-62
2021/05/05 01:43:04;;;;;;;8.32;1.50;;;11.40;57.50;;;;;;5041694;28;20040;-63
2021/05/05 01:45:29;;;;;;;11.55;1.30;;;11.40;57.50;;;;;;5066239;28;20036;-63
2021/05/05 01:48:01;;;;;;;10.27;1.75;;;11.40;57.50;;;;;;5061686;28;20043;-62
2021/05/05 01:50:27;;;;;;;10.55;1.52;;;11.40;57.60;;;;;;5056687;28;20039;-63
2021/05/05 01:52:53;;;;;;;9.82;1.58;;;11.40;57.60;;;;;;5053591;28;20044;-61
2021/05/05 01:55:19;;;;;;;11.25;1.60;;;11.40;57.70;;;;;;5062964;28;20052;-61
2021/05/05 01:57:46;;;;;;;7.93;1.63;;;11.40;57.60;;;;;;5060353;28;20128;-63
2021/05/05 02:00:21;;;;;;;14.90;2.38;;;11.40;57.70;;;;;;5059080;28;20035;-62
2021/05/05 02:02:49;;;;;;;10.07;1.58;;;11.40;57.60;;;;;;5060426;28;20159;-62
2021/05/05 02:05:15;;;;;;;14.80;1.48;;;11.40;57.60;;;;;;5033665;28;20059;-62
2021/05/05 02:07:41;;;;;;;5.97;1.65;;;11.40;57.60;;;;;;5051035;28;20403;-63
2021/05/05 02:10:13;;;;;;;7.10;1.65;;;11.40;57.60;;;;;;5059741;28;20040;-63
2021/05/05 02:12:41;;;;;;;7.93;1.77;;;11.50;57.60;;;;;;5050644;28;20032;-63
2021/05/05 02:15:11;;;;;;;8.70;1.45;;;11.40;57.50;;;;;;5038736;28;21525;-62
2021/05/05 02:17:38;;;;;;;8.45;1.70;;;11.50;57.60;;;;;;5064354;28;20116;-63
2021/05/05 02:20:10;;;;;;;7.75;1.52;;;11.50;57.60;;;;;;5060985;28;20119;-61
2021/05/05 02:22:38;;;;;;;8.63;1.90;;;11.50;57.60;;;;;;5047765;28;20036;-63
2021/05/05 02:25:06;;;;;;;11.20;1.50;;;11.50;57.60;;;;;;5046485;28;20040;-63
2021/05/05 02:27:32;;;;;;;10.68;1.92;;;11.50;57.60;;;;;;5034167;28;20064;-62
2021/05/05 02:29:57;;;;;;;8.73;1.75;;;11.50;57.50;;;;;;5040625;28;20514;-62
2021/05/05 02:32:24;;;;;;;9.93;2.25;;;11.40;57.50;;;;;;5047864;28;20136;-62
2021/05/05 02:34:54;;;;;;;12.57;1.83;;;11.50;57.60;;;;;;5055408;28;20133;-62
2021/05/05 02:37:22;;;;;;;10.40;1.88;;;11.40;57.50;;;;;;5039488;28;20055;-62
2021/05/05 02:39:50;;;;;;;9.60;1.65;;;11.50;57.50;;;;;;5043195;28;20033;-62
2021/05/05 02:42:19;;;;;;;8.82;1.75;;;11.50;57.50;;;;;;5050669;28;20082;-62
2021/05/05 02:44:49;;;;;;;6.78;1.50;;;11.50;57.50;;;;;;5036571;28;20036;-62
2021/05/05 02:47:16;;;;;;;4.22;1.17;;;11.50;57.50;;;;;;5045802;28;20075;-62
2021/05/05 02:49:44;;;;;;;7.63;1.85;;;11.50;57.40;;;;;;5034762;28;20032;-62
2021/05/05 02:52:14;;;;;;;7.07;1.60;;;11.50;57.40;;;;;;5049222;28;20144;-61
2021/05/05 02:54:40;;;;;;;7.65;1.40;;;11.50;57.40;;;;;;5046421;28;20059;-61
2021/05/05 02:57:06;;;;;;;10.00;2.17;;;11.50;57.40;;;;;;5046752;28;20091;-63
2021/05/05 02:59:32;;;;;;;6.10;1.80;;;11.50;57.30;;;;;;5038867;28;20033;-63
2021/05/05 03:02:02;;;;;;;7.97;2.22;;;11.50;57.20;;;;;;5049355;28;20059;-63
2021/05/05 03:04:31;;;;;;;7.05;1.80;;;11.50;57.20;;;;;;5043026;28;20033;-61
2021/05/05 03:06:57;;;;;;;7.65;1.70;;;11.50;57.10;;;;;;5041978;28;20098;-60
2021/05/05 03:09:25;;;;;;;11.05;2.05;;;11.50;57.20;;;;;;5033547;28;20033;-62
2021/05/05 03:11:55;;;;;;;5.00;1.50;;;11.40;57.20;;;;;;5045457;28;20029;-62
2021/05/05 03:14:25;;;;;;;9.93;2.10;;;11.40;57.20;;;;;;5051298;28;20414;-62
2021/05/05 03:17:00;;;;;;;11.75;1.85;;;11.40;57.30;;;;;;5029027;28;21180;-61
2021/05/05 03:19:27;;;;;;;11.13;1.90;;;11.40;57.30;;;;;;5033157;28;20045;-62
2021/05/05 03:21:52;;;;;;;7.82;1.75;;;11.40;57.20;;;;;;5046880;28;20043;-62
2021/05/05 03:24:18;;;;;;;7.40;1.73;;;11.40;57.20;;;;;;5044811;28;20342;-62
2021/05/05 03:26:46;;;;;;;5.72;1.70;;;11.30;57.10;;;;;;5038056;28;20052;-61
2021/05/05 03:29:11;;;;;;;15.45;2.15;;;11.30;57.20;;;;;;5049664;28;20479;-63
2021/05/05 03:31:39;;;;;;;9.45;1.70;;;11.30;57.20;;;;;;5022818;28;20036;-60
2021/05/05 03:34:08;;;;;;;8.50;1.77;;;11.30;57.40;;;;;;5036644;28;20138;-62
2021/05/05 03:36:33;;;;;;;13.73;2.28;;;11.30;57.40;;;;;;5039458;28;20511;-62
2021/05/05 03:39:02;;;;;;;12.93;2.78;;;11.30;57.40;;;;;;5057229;28;20028;-62
2021/05/05 03:41:29;;;;;;;12.48;2.00;;;11.30;57.40;;;;;;5068957;28;20445;-62
2021/05/05 03:43:55;;;;;;;15.02;1.83;;;11.30;57.30;;;;;;5060422;28;20044;-62
2021/05/05 03:46:23;;;;;;;15.10;2.20;;;11.30;57.30;;;;;;5059079;28;20103;-61
2021/05/05 03:48:48;;;;;;;12.57;1.92;;;11.30;57.40;;;;;;5061520;28;20067;-62
2021/05/05 03:51:14;;;;;;;9.27;2.20;;;11.30;57.50;;;;;;5059175;28;20537;-61
2021/05/05 03:53:39;;;;;;;19.90;2.90;;;11.30;57.50;;;;;;5050099;28;20141;-62
2021/05/05 03:56:05;;;;;;;9.50;2.15;;;11.30;57.50;;;;;;5053067;28;20043;-62
2021/05/05 03:58:33;;;;;;;11.90;2.47;;;11.30;57.60;;;;;;5035567;28;20055;-62
2021/05/05 04:00:59;;;;;;;10.77;2.17;;;11.30;57.50;;;;;;5065199;28;20597;-62
2021/05/05 04:03:25;;;;;;;13.90;2.40;;;11.30;57.50;;;;;;5057783;28;20036;-63
2021/05/05 04:05:52;;;;;;;15.90;2.70;;;11.30;57.50;;;;;;5067494;28;20109;-62
2021/05/05 04:08:18;;;;;;;13.07;2.80;;;11.30;57.60;;;;;;5062280;28;20042;-62
2021/05/05 04:10:44;;;;;;;5.75;1.92;;;11.30;57.60;;;;;;5042832;28;20044;-63
2021/05/05 04:13:12;;;;;;;8.75;1.92;;;11.30;57.50;;;;;;5044244;28;20048;-63
2021/05/05 04:15:40;;;;;;;9.88;2.67;;;11.30;57.50;;;;;;5055055;28;20063;-62
2021/05/05 04:18:10;;;;;;;13.20;2.53;;;11.30;57.50;;;;;;5051428;28;20036;-62
2021/05/05 04:20:36;;;;;;;12.25;2.13;;;11.30;57.40;;;;;;5062775;28;20043;-62
2021/05/05 04:23:04;;;;;;;8.80;2.05;;;11.30;57.40;;;;;;5058113;28;22290;-62
2021/05/05 04:25:31;;;;;;;10.75;2.10;;;11.40;57.40;;;;;;5057297;28;20569;-62
2021/05/05 04:27:59;;;;;;;12.00;2.13;;;11.30;57.30;;;;;;5052507;28;20130;-62
2021/05/05 04:30:29;;;;;;;7.82;1.90;;;11.30;57.30;;;;;;5049134;28;20047;-63
2021/05/05 04:32:57;;;;;;;5.90;2.00;;;11.30;57.20;;;;;;5065740;28;20086;-62
2021/05/05 04:35:23;;;;;;;11.82;1.98;;;11.30;57.30;;;;;;5062944;28;20241;-62
2021/05/05 04:37:51;;;;;;;12.90;2.45;;;11.30;57.30;;;;;;5058348;28;20028;-64
2021/05/05 04:40:21;;;;;;;12.45;2.40;;;11.30;57.30;;;;;;5056571;28;20046;-63
2021/05/05 04:42:46;;;;;;;13.00;2.17;;;11.30;57.30;;;;;;5064943;28;20039;-62
2021/05/05 04:45:12;;;;;;;15.38;2.53;;;11.30;57.40;;;;;;5067048;28;20032;-62
2021/05/05 04:47:39;;;;;;;10.00;2.33;;;11.30;57.40;;;;;;5068056;28;20036;-62
2021/05/05 04:50:09;;;;;;;17.08;2.05;;;11.30;57.40;;;;;;5062337;28;21318;-62
2021/05/05 04:52:37;;;;;;;10.07;2.05;;;11.30;57.40;;;;;;5028879;28;20151;-62
2021/05/05 04:55:06;;;;;;;11.40;1.77;;;11.30;57.50;;;;;;5039794;28;20033;-62
2021/05/05 04:57:35;;;;;;;6.93;2.20;;;11.30;57.60;;;;;;5035269;28;20454;-62
2021/05/05 05:00:03;;;;;;;11.05;2.40;;;11.40;57.60;;;;;;5055965;28;20029;-61
2021/05/05 05:02:33;;;;;;;12.73;2.45;;;11.40;57.50;;;;;;5024240;28;20617;-62
2021/05/05 05:05:04;;;;;;;6.95;2.13;;;11.40;57.30;;;;;;5044370;28;20086;-62
2021/05/05 05:07:31;;;;;;;8.63;1.95;;;11.40;57.40;;;;;;5028885;28;20039;-61
2021/05/05 05:10:01;;;;;;;9.70;2.13;;;11.40;57.30;;;;;;5050960;28;20062;-61
2021/05/05 05:12:26;;;;;;;13.70;2.50;;;11.40;57.30;;;;;;5066772;28;20035;-62
2021/05/05 05:14:54;;;;;;;10.60;2.35;;;11.50;57.40;;;;;;5069303;28;20024;-63
2021/05/05 05:17:22;;;;;;;12.02;2.10;;;11.50;57.50;;;;;;5066678;28;20067;-62
2021/05/05 05:19:50;;;;;;;11.38;2.42;;;11.50;57.60;;;;;;5054310;28;20473;-61
2021/05/05 05:22:17;;;;;;;9.80;2.17;;;11.50;57.50;;;;;;5072142;28;20757;-62
2021/05/05 05:24:43;;;;;;;13.35;2.42;;;11.50;57.50;;;;;;5065730;28;20046;-62
2021/05/05 05:27:13;;;;;;;13.05;2.85;;;11.50;57.40;;;;;;5070865;28;20040;-62
2021/05/05 05:29:38;;;;;;;13.00;2.67;;;11.50;57.50;;;;;;5067637;28;20161;-63
2021/05/05 05:32:06;;;;;;;8.75;1.98;;;11.50;57.60;;;;;;5072192;28;20155;-63
2021/05/05 05:34:34;;;;;;;17.40;2.72;;;11.50;57.70;;;;;;5069816;28;20044;-62
2021/05/05 05:37:00;;;;;;;10.98;2.05;;;11.50;57.80;;;;;;5066915;28;20494;-63
2021/05/05 05:39:28;;;;;;;9.80;2.15;;;11.60;57.80;;;;;;5072593;28;20051;-62
2021/05/05 05:41:56;;;;;;;10.50;1.83;;;11.60;57.80;;;;;;5071239;28;20128;-62
2021/05/05 05:44:23;;;;;;;5.75;1.60;;;11.60;57.60;;;;;;5057411;28;20047;-63
2021/05/05 05:46:51;;;;;;;16.30;2.53;;;11.70;56.90;;;;;;5069505;28;20043;-62
2021/05/05 05:49:19;;;;;;;9.82;2.40;;;11.70;57.20;;;;;;5062483;28;20093;-63
2021/05/05 05:51:45;;;;;;;13.38;1.90;;;11.70;57.00;;;;;;5060634;28;20039;-62
2021/05/05 05:54:16;;;;;;;5.55;1.52;;;11.70;56.90;;;;;;5046575;28;20545;-62
2021/05/05 05:56:44;;;;;;;5.10;1.35;;;11.80;56.90;;;;;;5057022;28;20047;-62
2021/05/05 05:59:09;;;;;;;3.42;1.30;;;11.80;56.60;;;;;;5049904;28;20040;-62
2021/05/05 06:01:37;;;;;;;4.22;1.10;;;11.70;56.70;;;;;;5056821;28;20109;-63
2021/05/05 06:04:03;;;;;;;5.45;1.30;;;11.70;56.90;;;;;;5064603;28;20451;-62
2021/05/05 06:06:28;;;;;;;7.47;1.77;;;11.70;57.10;;;;;;5045968;28;20053;-63
2021/05/05 06:08:56;;;;;;;8.50;1.70;;;11.70;57.30;;;;;;5059113;28;20039;-63
2021/05/05 06:11:22;;;;;;;11.45;2.03;;;11.80;57.40;;;;;;5040643;28;20043;-62
2021/05/05 06:13:50;;;;;;;11.52;2.47;;;11.80;57.70;;;;;;5045030;28;20468;-62
2021/05/05 06:16:17;;;;;;;9.60;1.70;;;11.90;57.70;;;;;;5067429;28;20716;-62
2021/05/05 06:18:45;;;;;;;6.97;2.20;;;11.90;57.50;;;;;;5063042;28;20123;-63
2021/05/05 06:21:13;;;;;;;12.98;2.25;;;12.00;57.90;;;;;;5046092;28;20100;-62
2021/05/05 06:23:41;;;;;;;9.38;2.40;;;12.10;57.90;;;;;;5052596;28;20165;-62
2021/05/05 06:26:07;;;;;;;12.13;2.42;;;12.20;57.60;;;;;;5066403;28;20036;-62
2021/05/05 06:28:35;;;;;;;13.07;2.25;;;12.20;57.40;;;;;;5065803;28;20051;-63
2021/05/05 06:31:00;;;;;;;20.50;2.53;;;12.20;57.40;;;;;;5066916;28;20032;-62
2021/05/05 06:33:29;;;;;;;17.45;2.70;;;12.20;57.60;;;;;;5066876;28;24108;-62
2021/05/05 06:35:57;;;;;;;10.13;2.35;;;12.20;58.30;;;;;;5067457;28;20179;-62
2021/05/05 06:38:22;;;;;;;16.42;2.65;;;12.40;57.70;;;;;;5059350;28;20063;-61
2021/05/05 06:40:48;;;;;;;11.75;2.22;;;12.40;57.20;;;;;;5064937;28;20032;-62
2021/05/05 06:43:16;;;;;;;12.48;2.65;;;12.50;57.30;;;;;;5069263;28;20127;-62
2021/05/05 06:45:44;;;;;;;15.10;2.80;;;12.50;57.20;;;;;;5059042;28;20051;-62
2021/05/05 06:48:09;;;;;;;14.85;2.85;;;12.60;57.10;;;;;;5051501;28;20484;-62
2021/05/05 06:50:37;;;;;;;12.80;2.40;;;12.70;56.90;;;;;;5059930;28;20047;-63
2021/05/05 06:53:03;;;;;;;12.02;2.58;;;12.70;56.50;;;;;;5058376;28;20036;-62
2021/05/05 06:55:31;;;;;;;10.18;2.13;;;12.70;56.30;;;;;;5064485;28;20426;-63
2021/05/05 06:57:57;;;;;;;12.00;2.42;;;12.70;56.30;;;;;;5058493;28;20032;-62
2021/05/05 07:00:25;;;;;;;15.60;2.10;;;12.70;56.10;;;;;;5033328;28;20438;-62
2021/05/05 07:02:56;;;;;;;12.80;2.72;;;12.80;56.00;;;;;;5052051;28;20055;-62
2021/05/05 07:05:25;;;;;;;16.02;2.97;;;12.80;55.90;;;;;;5057344;28;20039;-63
2021/05/05 07:07:53;;;;;;;11.73;2.60;;;12.80;55.80;;;;;;5057281;28;20588;-62
2021/05/05 07:10:18;;;;;;;10.18;3.08;;;12.90;55.80;;;;;;5053072;28;20032;-63
2021/05/05 07:12:46;;;;;;;16.02;2.88;;;12.90;55.60;;;;;;5062249;28;20036;-62
2021/05/05 07:15:15;;;;;;;20.20;3.10;;;12.90;55.50;;;;;;5046477;28;20032;-63
2021/05/05 07:17:41;;;;;;;13.80;2.47;;;12.90;55.30;;;;;;5046956;28;20707;-62
2021/05/05 07:20:09;;;;;;;13.18;2.45;;;12.90;55.20;;;;;;5053027;28;20032;-62
2021/05/05 07:22:37;;;;;;;11.73;2.47;;;13.00;55.20;;;;;;5057706;28;20801;-62
2021/05/05 07:25:05;;;;;;;17.15;2.92;;;13.00;55.00;;;;;;5065184;28;20070;-63
2021/05/05 07:27:32;;;;;;;25.15;2.63;;;13.00;55.40;;;;;;5048796;28;20039;-62
2021/05/05 07:29:58;;;;;;;16.60;2.70;;;13.00;54.60;;;;;;5057888;28;20036;-62
2021/05/05 07:32:25;;;;;;;8.70;2.75;;;13.00;54.40;;;;;;5058291;28;20488;-62
2021/05/05 07:34:53;;;;;;;10.90;2.22;;;13.00;54.40;;;;;;5061213;28;20035;-61
2021/05/05 07:48:10;;;;;;;10.90;2.53;;;13.70;53.70;;;;;;5056295;28;20040;-62
2021/05/05 07:50:35;;;;;;;18.02;2.65;;;13.70;53.10;;;;;;5064884;28;20068;-62
2021/05/05 07:53:06;;;;;;;24.33;3.28;;;13.80;52.70;;;;;;5057727;28;20592;-62
2021/05/05 07:55:32;;;;;;;15.85;2.72;;;13.70;52.50;;;;;;5026019;28;20037;-61
2021/05/05 07:57:57;;;;;;;12.98;3.00;;;13.70;52.40;;;;;;5052370;28;20032;-62
2021/05/05 08:00:26;;;;;;;14.75;3.10;;;13.70;52.20;;;;;;5041377;28;20234;-61
2021/05/05 08:02:54;;;;;;;10.80;2.45;;;13.60;52.40;;;;;;5040709;28;20043;-62
2021/05/05 08:05:22;;;;;;;12.52;2.83;;;13.60;52.40;;;;;;5045079;28;20074;-62
2021/05/05 08:07:50;;;;;;;16.75;2.90;;;13.60;52.60;;;;;;5068664;28;20090;-61
2021/05/05 08:10:18;;;;;;;18.60;2.22;;;13.60;52.70;;;;;;5057401;28;20614;-62
2021/05/05 08:12:44;;;;;;;17.38;3.08;;;13.60;52.40;;;;;;5060304;28;20463;-61
2021/05/05 08:15:15;;;;;;;17.58;2.85;;;13.60;52.50;;;;;;5058268;28;20210;-62
2021/05/05 08:17:43;;;;;;;11.50;2.42;;;13.70;52.50;;;;;;5055401;28;20501;-61
2021/05/05 08:20:14;;;;;;;12.15;2.33;;;13.90;52.30;;;;;;5058753;28;20028;-60
2021/05/05 08:22:45;;;;;;;13.13;2.53;;;14.00;52.00;;;;;;5043142;28;20099;-62
2021/05/05 08:25:13;;;;;;;18.13;2.95;;;14.10;51.70;;;;;;5062351;28;20093;-61
2021/05/05 08:27:41;;;;;;;11.88;2.08;;;14.20;51.40;;;;;;5037415;28;20564;-61
2021/05/05 08:30:09;;;;;;;9.95;2.13;;;14.30;51.50;;;;;;5054581;28;20055;-60
2021/05/05 08:32:37;;;;;;;10.95;1.80;;;14.40;51.30;;;;;;5058358;28;20050;-60
2021/05/05 08:35:05;;;;;;;17.67;2.03;;;14.50;50.60;;;;;;5059481;28;20543;-62
2021/05/05 08:37:31;;;;;;;9.95;1.85;;;14.50;50.20;;;;;;5055874;28;20780;-62
2021/05/05 08:39:56;;;;;;;8.43;1.83;;;14.50;50.10;;;;;;5071323;28;20043;-62
2021/05/05 08:42:22;;;;;;;10.85;2.10;;;14.40;49.90;;;;;;5060460;28;20032;-61
2021/05/05 08:44:49;;;;;;;10.50;2.05;;;14.40;49.60;;;;;;5060001;28;20110;-62
2021/05/05 08:47:18;;;;;;;10.35;2.50;;;14.20;49.70;;;;;;5062670;28;20331;-62
2021/05/05 08:49:44;;;;;;;7.72;2.08;;;14.00;50.40;;;;;;5061530;28;20572;-61
2021/05/05 08:52:10;;;;;;;9.48;1.98;;;13.80;51.00;;;;;;5060643;28;20113;-61
2021/05/05 08:54:38;;;;;;;7.05;1.90;;;13.70;51.50;;;;;;5043754;28;20095;-61
2021/05/05 08:57:04;;;;;;;8.88;2.42;;;13.70;51.90;;;;;;5049226;28;24217;-60
2021/05/05 08:59:37;;;;;;;10.32;2.30;;;13.70;52.10;;;;;;5032859;28;20114;-62
2021/05/05 09:02:02;;;;;;;11.07;2.33;;;13.70;52.10;;;;;;5055130;28;20065;-61
2021/05/05 09:04:28;;;;;;;14.60;2.95;;;13.70;52.10;;;;;;5041808;28;20028;-62
2021/05/05 09:07:00;;;;;;;11.05;2.35;;;13.80;52.10;;;;;;5058785;28;20036;-61
2021/05/05 09:09:33;;;;;;;13.13;2.63;;;13.90;51.90;;;;;;5059896;28;20061;-61
2021/05/05 09:12:10;;;;;;;9.43;2.63;;;;;;;;;;5059761;28;20040;-61
2021/05/05 09:15:10;;;;;;;10.82;2.28;;;13.90;51.70;;;;;;5058739;28;20040;-61
2021/05/05 09:17:39;;;;;;;15.45;2.65;;;13.90;52.10;;;;;;5055440;28;20036;-61
2021/05/05 09:20:05;;;;;;;12.27;2.38;;;13.90;52.60;;;;;;5063616;28;20032;-60
2021/05/05 09:22:43;;;;;;;12.00;2.42;;;13.90;52.70;;;;;;5046772;28;20039;-61
2021/05/05 09:25:16;;;;;;;6.88;1.95;;;14.10;53.10;;;;;;5063753;28;20043;-60
2021/05/05 09:28:07;;;;;;;10.18;1.73;;;14.20;53.30;;;;;;5057031;28;20302;-61
2021/05/05 09:30:38;;;;;;;9.52;1.73;;;14.70;53.60;;;;;;5065587;28;20040;-61
2021/05/05 09:33:03;;;;;;;8.63;1.80;;;15.10;52.20;;;;;;5050272;28;20043;-60
2021/05/05 09:35:38;;;;;;;7.78;1.85;;;15.40;51.60;;;;;;5038251;28;20032;-62
2021/05/05 09:38:10;;;;;;;8.30;1.75;;;15.50;51.60;;;;;;5049649;28;20155;-61
2021/05/05 09:40:56;;;;;;;5.40;1.60;;;15.50;51.50;;;;;;5056659;28;20036;-61
2021/05/05 09:43:22;;;;;;;6.13;1.52;;;15.50;51.00;;;;;;5063630;28;20050;-61
2021/05/05 09:45:47;;;;;;;5.25;1.50;;;15.40;50.80;;;;;;5061675;28;20039;-61
2021/05/05 09:48:21;;;;;;;2.20;1.02;;;;;;;;;;5058390;28;20043;-60
2021/05/05 09:50:47;;;;;;;4.38;0.90;;;;;;;;;;5058672;28;20499;-62
2021/05/05 09:53:21;;;;;;;6.38;1.25;;;15.40;51.20;;;;;;5062727;28;20028;-63
2021/05/05 09:55:52;;;;;;;5.60;0.98;;;15.40;50.50;;;;;;5068835;28;20038;-62
2021/05/05 09:58:41;;;;;;;3.05;1.30;;;15.30;50.90;;;;;;5057432;28;20060;-61
2021/05/05 10:01:22;;;;;;;4.80;1.17;;;15.20;51.00;;;;;;5047844;28;20031;-61
2021/05/05 10:03:50;;;;;;;3.97;1.30;;;15.20;51.20;;;;;;5067229;28;20104;-63
2021/05/05 10:06:25;;;;;;;3.28;1.13;;;15.30;51.60;;;;;;5063104;28;20081;-61
2021/05/05 10:08:52;;;;;;;3.60;1.42;;;15.50;51.60;;;;;;5064998;28;20062;-62
2021/05/05 10:11:27;;;;;;;6.28;1.50;;;15.70;51.00;;;;;;5062571;28;20498;-60
2021/05/05 10:14:17;;;;;;;6.88;1.60;;;15.70;50.20;;;;;;5060871;28;20130;-61
2021/05/05 10:16:49;;;;;;;7.75;1.65;;;15.60;50.50;;;;;;5062636;28;20032;-60
2021/05/05 10:19:23;;;;;;;3.97;1.40;;;15.50;50.50;;;;;;5066393;28;20136;-62
2021/05/05 10:21:55;;;;;;;6.07;1.38;;;15.20;50.50;;;;;;5064038;28;20490;-62
2021/05/05 10:24:23;;;;;;;6.60;1.35;;;15.00;51.30;;;;;;5067939;28;20042;-62
2021/05/05 10:26:49;;;;;;;4.22;1.10;;;14.90;52.70;;;;;;5068313;28;20036;-62
2021/05/05 10:29:16;;;;;;;6.68;1.40;;;15.10;52.90;;;;;;5060489;28;20631;-61
2021/05/05 10:31:49;;;;;;;5.63;1.25;;;15.30;52.40;;;;;;5074815;28;20040;-62
2021/05/05 10:34:25;;;;;;;3.75;1.20;;;15.20;51.40;;;;;;5072134;28;20043;-63
2021/05/05 10:36:53;;;;;;;3.08;0.93;;;14.90;51.40;;;;;;5061486;28;20048;-62
2021/05/05 10:39:19;;;;;;;2.88;0.82;;;14.50;51.70;;;;;;5046088;28;20043;-62
2021/05/05 10:42:12;;;;;;;2.47;0.95;;;14.30;52.60;;;;;;5049611;28;20044;-61
2021/05/05 10:44:59;;;;;;;2.03;0.85;;;14.20;53.50;;;;;;5048573;28;20047;-62
2021/05/05 10:47:37;;;;;;;3.50;0.98;;;14.20;54.00;;;;;;5044456;28;20032;-61
2021/05/05 10:50:11;;;;;;;3.83;1.08;;;14.20;54.40;;;;;;5045582;28;20036;-62
2021/05/05 10:52:42;;;;;;;4.22;1.45;;;14.20;54.20;;;;;;5038670;28;20131;-62
2021/05/05 10:55:12;;;;;;;4.78;1.25;;;14.20;54.10;;;;;;5041939;28;20084;-62
2021/05/05 10:57:42;;;;;;;5.43;1.33;;;14.20;54.10;;;;;;5045840;28;20354;-62
2021/05/05 11:00:14;;;;;;;5.70;1.13;;;14.20;54.50;;;;;;5054343;28;20654;-62
2021/05/05 11:02:40;;;;;;;4.43;0.82;;;14.10;54.70;;;;;;5049582;28;20090;-62
2021/05/05 11:05:21;;;;;;;4.82;0.93;;;14.20;54.80;;;;;;5051391;28;20024;-62
2021/05/05 11:08:04;;;;;;;3.15;0.80;;;14.30;54.60;;;;;;5047399;28;20130;-63
2021/05/05 11:10:35;;;;;;;3.08;1.30;;;14.20;54.20;;;;;;5050635;28;20036;-62
2021/05/05 11:13:17;;;;;;;7.03;1.40;;;14.00;54.20;;;;;;5045615;28;20932;-62
2021/05/05 11:15:45;;;;;;;8.70;1.88;;;13.90;54.90;;;;;;5049377;28;20050;-63
2021/05/05 11:18:26;;;;;;;10.25;1.80;;;13.90;55.60;;;;;;5041198;28;20035;-62
2021/05/05 11:21:01;;;;;;;5.25;1.48;;;14.10;56.40;;;;;;5045569;28;20036;-63
2021/05/05 11:23:32;;;;;;;6.72;1.52;;;14.40;56.10;;;;;;5046279;28;20043;-63
2021/05/05 11:26:16;;;;;;;8.85;1.77;;;14.70;55.60;;;;;;5048236;28;20056;-62
2021/05/05 11:28:59;;;;;;;8.85;1.90;;;14.80;54.60;;;;;;5056112;28;20174;-63
2021/05/05 11:31:46;;;;;;;9.52;2.10;;;14.70;54.30;;;;;;5050884;28;20042;-63
2021/05/05 11:34:22;;;;;;;7.47;1.70;;;14.60;54.30;;;;;;5065545;28;20758;-63
2021/05/05 11:37:28;;;;;;;8.73;1.90;;;14.50;54.40;;;;;;5048494;28;20063;-62
2021/05/05 11:40:03;;;;;;;6.25;1.50;;;14.30;54.20;;;;;;5059972;28;20032;-64
2021/05/05 11:42:33;;;;;;;6.10;1.42;;;14.10;54.30;;;;;;5061037;28;20043;-63
2021/05/05 11:45:01;;;;;;;7.75;1.60;;;13.80;54.70;;;;;;5048707;28;20133;-63
2021/05/05 11:47:30;;;;;;;9.52;2.67;;;;;;;;;;5052040;28;20125;-63
2021/05/05 11:50:01;;;;;;;15.23;2.63;;;13.40;55.90;;;;;;5054347;28;20046;-63
2021/05/05 11:52:39;;;;;;;11.45;2.22;;;13.40;57.00;;;;;;5068115;28;20223;-64
2021/05/05 11:55:17;;;;;;;11.52;2.80;;;13.60;57.80;;;;;;5054262;28;20674;-63
2021/05/05 11:57:52;;;;;;;12.48;2.97;;;14.00;58.10;;;;;;5050834;28;20047;-63
2021/05/05 12:00:25;;;;;;;10.40;2.17;;;14.50;57.50;;;;;;5038583;28;21222;-63
2021/05/05 12:02:51;;;;;;;13.43;2.20;;;14.90;56.50;;;;;;5049806;28;20704;-64
2021/05/05 12:05:36;;;;;;;11.50;2.47;;;15.10;55.60;;;;;;5052651;28;20028;-63
2021/05/05 12:08:15;;;;;;;15.20;2.70;;;15.00;54.40;;;;;;5041722;28;20542;-64
2021/05/05 12:10:47;;;;;;;11.45;1.80;;;;;;;;;;5025779;28;20060;-64
2021/05/05 12:13:13;;;;;;;11.38;1.92;;;14.70;53.80;;;;;;5043651;28;20044;-63
2021/05/05 12:15:50;;;;;;;9.13;2.28;;;13.80;54.40;;;;;;5047318;28;20029;-63
2021/05/05 12:18:29;;;;;;;14.00;2.28;;;13.60;55.80;;;;;;5041300;28;20042;-64
2021/05/05 12:21:05;;;;;;;15.40;2.80;;;13.50;56.80;;;;;;5043089;28;20030;-64
2021/05/05 12:23:41;;;;;;;11.30;2.38;;;;;;;;;;5049216;28;20040;-63
2021/05/05 12:26:19;;;;;;;14.13;2.70;;;13.60;56.70;;;;;;5047335;28;20028;-63
2021/05/05 12:28:46;;;;;;;23.20;2.80;;;;;;;;;;5048043;28;20123;-64
2021/05/05 12:31:14;;;;;;;11.98;2.88;;;13.40;56.50;;;;;;5029592;28;20028;-64
2021/05/05 12:33:41;;;;;;;13.57;2.90;;;13.20;57.10;;;;;;5047714;28;20041;-64
2021/05/05 12:36:20;;;;;;;13.30;2.60;;;13.10;57.30;;;;;;5053766;28;20043;-63
2021/05/05 12:38:58;;;;;;;8.77;2.45;;;13.10;57.80;;;;;;5051293;28;20070;-63
2021/05/05 12:41:38;;;;;;;13.45;2.40;;;13.40;59.40;;;;;;5047438;28;21787;-64
2021/05/05 12:44:03;;;;;;;11.23;2.17;;;13.80;59.20;;;;;;5048657;28;20782;-63
2021/05/05 12:46:54;;;;;;;10.18;2.45;;;14.20;58.10;;;;;;5043936;28;20040;-64
2021/05/05 12:49:27;;;;;;;6.72;2.15;;;14.50;58.30;;;;;;5053788;28;20418;-63
2021/05/05 12:51:53;;;;;;;9.93;2.65;;;14.90;58.50;;;;;;5050339;28;20069;-63
2021/05/05 12:54:21;;;;;;;10.52;2.03;;;15.20;57.20;;;;;;5050475;28;20040;-63
2021/05/05 12:56:48;;;;;;;12.57;2.20;;;15.40;56.20;;;;;;5047043;28;20094;-63
2021/05/05 12:59:19;;;;;;;12.18;2.50;;;15.40;55.90;;;;;;5049407;28;20036;-63
2021/05/05 13:01:48;;;;;;;6.40;1.95;;;15.50;55.40;;;;;;5045178;28;20071;-63
2021/05/05 13:04:18;;;;;;;9.95;2.13;;;15.70;55.10;;;;;;5050057;28;20740;-62
2021/05/05 13:06:45;;;;;;;11.70;2.20;;;;;;;;;;5046774;28;20036;-63
2021/05/05 13:09:18;;;;;;;11.30;2.30;;;;;;;;;;5033754;28;20028;-63